Main page
METAR-TAF:

METAR-TAF

Airports :

Zeltweg Air Base

Zeltweg, Austria

latitude: 47-12N, longitude: 014-45E, elevation: 677 m

Current weather observation

The report was made 56 minutes ago, at 15:50 UTC
Wind 1 kt from variable directions
Temperature 0°C
Humidity 93%
Pressure 1009 hPa

METAR: LOXZ 201550Z VRB01KT 20KM FEW006ST OVC040SC 00/M01 Q1009 NOSIG

Time: 17:46 (16:46 UTC)

Forecast

The report was made 5 hours and 31 minutes ago, at 11:15 UTC
Forecast valid from 20 at 12 UTC to 20 at 21 UTC
Wind 3 kt from variable directions
Visibility 10 km or more
Few clouds at a height of 700 ft
Broken clouds at a height of 3500 ft
Becoming
from 20 at 17 UTC to 20 at 19 UTC
Visibility: 3000 m
Broken clouds at a height of 500 ft
mist

TAF: LOXZ 201115Z 2012/2021 VRB03KT 9999 FEW007 BKN035 BECMG 2017/2019 3000 BR BKN005

Weather observations and forecasts of more than 4000 airports (METAR and TAF reports).

The available stations are represented by yellow and red dots on the map.

Hover mouse over dot to see the name of the station.

Then click to see weather observations and forecasts.

To change the map : click on the green buttons with a black cross to zoom in, on the green button with a dash to zoom out, or on the green arrows for adjacent maps.


METAR-TAF: